Time,TemperatureF,DewpointF,PressureIn,WindDirection,WindDirectionDegrees,WindSpeedMPH,WindSpeedGustMPH,Humidity,HourlyPrecipIn,Conditions,Clouds,dailyrainin,SoftwareType,DateUTC
2013-06-29 00:01:00,58.0,54.0,-100.00,SSE,155,12.0,15.0,88,-99.99,,,-99.99,,2013-06-29 06:01:00,
2013-06-29 00:12:00,57.0,54.0,-100.00,SSE,160,11.0,15.0,89,-99.99,,,-99.99,,2013-06-29 06:12:00,
2013-06-29 00:43:00,56.0,54.0,-100.00,SE,145,12.0,14.0,90,-99.99,,,-99.99,,2013-06-29 06:43:00,
2013-06-29 01:02:00,56.0,54.0,-100.00,SE,130,9.0,12.0,92,-99.99,,,-99.99,,2013-06-29 07:02:00,
2013-06-29 01:43:00,55.0,53.0,-100.00,SE,135,9.0,12.0,92,-99.99,,,-99.99,,2013-06-29 07:43:00,
2013-06-29 01:53:00,55.0,52.0,-100.00,SE,140,11.0,15.0,90,-99.99,,,-99.99,,2013-06-29 07:53:00,
2013-06-29 02:01:00,55.0,52.0,-100.00,SE,145,9.0,12.0,90,-99.99,,,-99.99,,2013-06-29 08:01:00,
2013-06-29 02:33:00,53.0,51.0,-100.00,SE,130,7.0,9.0,94,-99.99,,,-99.99,,2013-06-29 08:33:00,
2013-06-29 02:43:00,53.0,52.0,-100.00,SE,130,6.0,7.0,94,-99.99,,,-99.99,,2013-06-29 08:43:00,
2013-06-29 03:02:00,53.0,51.0,-100.00,SE,135,6.0,9.0,95,-99.99,,,-99.99,,2013-06-29 09:02:00,
2013-06-29 03:12:00,52.0,51.0,-100.00,ESE,115,5.0,7.0,94,-99.99,,,-99.99,,2013-06-29 09:12:00,
2013-06-29 03:42:00,53.0,51.0,-100.00,SE,145,4.0,6.0,93,-99.99,,,-99.99,,2013-06-29 09:42:00,
2013-06-29 04:43:00,53.0,51.0,-100.00,ESE,115,4.0,5.0,91,-99.99,,,-99.99,,2013-06-29 10:43:00,
2013-06-29 05:01:00,53.0,51.0,-100.00,SE,140,4.0,4.0,91,-99.99,,,-99.99,,2013-06-29 11:01:00,
2013-06-29 05:11:00,53.0,51.0,-100.00,SE,140,0.0,4.0,92,-99.99,,,-99.99,,2013-06-29 11:11:00,
2013-06-29 05:43:00,54.0,52.0,-100.00,SSE,165,1.0,3.0,93,-99.99,,,-99.99,,2013-06-29 11:43:00,
2013-06-29 06:02:00,54.0,52.0,-100.00,South,185,2.0,4.0,92,-99.99,,,-99.99,,2013-06-29 12:02:00,
2013-06-29 06:12:00,54.0,52.0,-100.00,SW,215,4.0,4.0,91,-99.99,,,-99.99,,2013-06-29 12:12:00,
2013-06-29 06:34:00,54.0,51.0,-100.00,WSW,255,4.0,4.0,90,-99.99,,,-99.99,,2013-06-29 12:34:00,
2013-06-29 06:43:00,55.0,52.0,-100.00,West,260,4.0,4.0,89,-99.99,,,-99.99,,2013-06-29 12:43:00,
2013-06-29 06:53:00,57.0,53.0,-100.00,WSW,255,6.0,6.0,85,-99.99,,,-99.99,,2013-06-29 12:53:00,
2013-06-29 08:12:00,64.0,52.0,-100.00,NE,40,5.0,9.0,63,-99.99,,,-99.99,,2013-06-29 14:12:00,
2013-06-29 08:44:00,68.0,51.0,-100.00,NNE,20,6.0,8.0,55,-99.99,,,-99.99,,2013-06-29 14:44:00,
2013-06-29 08:53:00,68.0,51.0,-100.00,NNE,20,6.0,9.0,54,-99.99,,,-99.99,,2013-06-29 14:53:00,
2013-06-29 09:11:00,68.0,50.0,-100.00,NE,35,7.0,11.0,51,-99.99,,,-99.99,,2013-06-29 15:11:00,
2013-06-29 09:42:00,69.0,49.0,-100.00,ENE,60,11.0,14.0,47,-99.99,,,-99.99,,2013-06-29 15:42:00,
2013-06-29 10:01:00,70.0,49.0,-100.00,East,80,9.0,14.0,47,-99.99,,,-99.99,,2013-06-29 16:01:00,
2013-06-29 10:43:00,72.0,49.0,-100.00,ENE,60,6.0,13.0,43,-99.99,,,-99.99,,2013-06-29 16:43:00,
2013-06-29 11:12:00,69.0,47.0,-100.00,North,5,6.0,9.0,45,-99.99,,,-99.99,,2013-06-29 17:12:00,
2013-06-29 11:42:00,69.0,50.0,-100.00,ENE,75,9.0,11.0,49,-99.99,,,-99.99,,2013-06-29 17:42:00,
2013-06-29 12:01:00,71.0,50.0,-100.00,ENE,75,7.0,12.0,46,-99.99,,,-99.99,,2013-06-29 18:01:00,
2013-06-29 12:12:00,70.0,49.0,-100.00,NE,50,12.0,18.0,47,-99.99,,,-99.99,,2013-06-29 18:12:00,
2013-06-29 12:22:00,69.0,49.0,-100.00,East,95,7.0,15.0,47,-99.99,,,-99.99,,2013-06-29 18:22:00,
2013-06-29 12:34:00,70.0,49.0,-100.00,ENE,65,9.0,15.0,47,-99.99,,,-99.99,,2013-06-29 18:34:00,
2013-06-29 12:43:00,71.0,49.0,-100.00,East,80,7.0,12.0,45,-99.99,,,-99.99,,2013-06-29 18:43:00,
2013-06-29 13:12:00,72.0,49.0,-100.00,NE,45,11.0,16.0,43,-99.99,,,-99.99,,2013-06-29 19:12:00,
2013-06-29 13:43:00,71.0,47.0,-100.00,NE,45,7.0,16.0,42,-99.99,,,-99.99,,2013-06-29 19:43:00,
2013-06-29 14:02:00,72.0,47.0,-100.00,East,85,6.0,9.0,40,-99.99,,,-99.99,,2013-06-29 20:02:00,
2013-06-29 14:11:00,74.0,47.0,-100.00,ENE,75,9.0,14.0,38,-99.99,,,-99.99,,2013-06-29 20:11:00,
2013-06-29 14:33:00,73.0,46.0,-100.00,East,80,9.0,15.0,37,-99.99,,,-99.99,,2013-06-29 20:33:00,
2013-06-29 14:43:00,74.0,46.0,-100.00,NNE,30,12.0,15.0,36,-99.99,,,-99.99,,2013-06-29 20:43:00,
2013-06-29 14:52:00,75.0,46.0,-100.00,ENE,65,9.0,20.0,36,-99.99,,,-99.99,,2013-06-29 20:52:00,
2013-06-29 15:02:00,75.0,45.0,-100.00,NE,45,12.0,22.0,35,-99.99,,,-99.99,,2013-06-29 21:02:00,
2013-06-29 15:11:00,74.0,45.0,-100.00,ESE,105,14.0,21.0,35,-99.99,,,-99.99,,2013-06-29 21:11:00,
2013-06-29 15:22:00,75.0,45.0,-100.00,ENE,60,14.0,22.0,34,-99.99,,,-99.99,,2013-06-29 21:22:00,
2013-06-29 15:32:00,73.0,44.0,-100.00,ENE,65,14.0,21.0,34,-99.99,,,-99.99,,2013-06-29 21:32:00,
2013-06-29 15:42:00,74.0,44.0,-100.00,East,90,10.0,17.0,34,-99.99,,,-99.99,,2013-06-29 21:42:00,
2013-06-29 15:52:00,73.0,44.0,-100.00,East,90,14.0,21.0,34,-99.99,,,-99.99,,2013-06-29 21:52:00,
2013-06-29 16:01:00,75.0,45.0,-100.00,East,95,11.0,21.0,34,-99.99,,,-99.99,,2013-06-29 22:01:00,
2013-06-29 16:11:00,76.0,45.0,-100.00,East,85,11.0,24.0,33,-99.99,,,-99.99,,2013-06-29 22:11:00,
2013-06-29 16:43:00,73.0,44.0,-100.00,NE,50,7.0,17.0,34,-99.99,,,-99.99,,2013-06-29 22:43:00,
2013-06-29 16:53:00,74.0,45.0,-100.00,South,170,9.0,13.0,35,-99.99,,,-99.99,,2013-06-29 22:53:00,
2013-06-29 17:12:00,74.0,48.0,-100.00,SE,125,16.0,20.0,39,-99.99,,,-99.99,,2013-06-29 23:12:00,
2013-06-29 17:34:00,72.0,47.0,-100.00,ESE,120,12.0,28.0,41,-99.99,,,-99.99,,2013-06-29 23:34:00,
2013-06-29 17:43:00,71.0,48.0,-100.00,East,85,16.0,19.0,43,-99.99,,,-99.99,,2013-06-29 23:43:00,
2013-06-29 18:11:00,73.0,50.0,-100.00,ESE,105,13.0,20.0,43,-99.99,,,-99.99,,2013-06-30 00:11:00,
2013-06-29 18:43:00,71.0,47.0,-100.00,ESE,105,11.0,19.0,42,-99.99,,,-99.99,,2013-06-30 00:43:00,
2013-06-29 19:01:00,70.0,45.0,-100.00,East,85,16.0,19.0,40,-99.99,,,-99.99,,2013-06-30 01:01:00,
2013-06-29 19:11:00,69.0,44.0,-100.00,ENE,70,13.0,22.0,41,-99.99,,,-99.99,,2013-06-30 01:11:00,
2013-06-29 19:44:00,68.0,44.0,-100.00,NE,55,11.0,16.0,42,-99.99,,,-99.99,,2013-06-30 01:44:00,
2013-06-29 19:53:00,68.0,44.0,-100.00,ENE,65,13.0,18.0,42,-99.99,,,-99.99,,2013-06-30 01:53:00,
2013-06-29 20:02:00,68.0,44.0,-100.00,ENE,65,12.0,19.0,43,-99.99,,,-99.99,,2013-06-30 02:02:00,
2013-06-29 20:11:00,67.0,45.0,-100.00,ENE,75,13.0,18.0,44,-99.99,,,-99.99,,2013-06-30 02:11:00,
2013-06-29 20:33:00,67.0,45.0,-100.00,East,85,11.0,14.0,45,-99.99,,,-99.99,,2013-06-30 02:33:00,
2013-06-29 20:43:00,66.0,45.0,-100.00,ENE,70,11.0,16.0,45,-99.99,,,-99.99,,2013-06-30 02:43:00,
2013-06-29 21:01:00,65.0,45.0,-100.00,East,80,10.0,14.0,47,-99.99,,,-99.99,,2013-06-30 03:01:00,
2013-06-29 21:12:00,65.0,44.0,-100.00,ENE,75,11.0,16.0,47,-99.99,,,-99.99,,2013-06-30 03:12:00,
2013-06-29 21:43:00,64.0,44.0,-100.00,East,85,11.0,15.0,48,-99.99,,,-99.99,,2013-06-30 03:43:00,
2013-06-29 21:53:00,64.0,44.0,-100.00,East,90,10.0,12.0,49,-99.99,,,-99.99,,2013-06-30 03:53:00,
2013-06-29 22:12:00,63.0,44.0,-100.00,East,85,9.0,13.0,49,-99.99,,,-99.99,,2013-06-30 04:12:00,
2013-06-29 22:33:00,62.0,43.0,-100.00,East,95,11.0,12.0,50,-99.99,,,-99.99,,2013-06-30 04:33:00,
2013-06-29 22:43:00,61.0,43.0,-100.00,East,85,9.0,12.0,51,-99.99,,,-99.99,,2013-06-30 04:43:00,
2013-06-29 22:53:00,61.0,44.0,-100.00,East,80,9.0,12.0,53,-99.99,,,-99.99,,2013-06-30 04:53:00,
2013-06-29 23:02:00,61.0,43.0,-100.00,East,85,11.0,12.0,52,-99.99,,,-99.99,,2013-06-30 05:02:00,
2013-06-29 23:12:00,60.0,43.0,-100.00,East,85,10.0,15.0,53,-99.99,,,-99.99,,2013-06-30 05:12:00,
2013-06-29 23:33:00,60.0,44.0,-100.00,East,90,9.0,14.0,56,-99.99,,,-99.99,,2013-06-30 05:33:00,
2013-06-29 23:43:00,59.0,45.0,-100.00,East,100,11.0,12.0,59,-99.99,,,-99.99,,2013-06-30 05:43:00,
2013-06-29 23:53:00,59.0,46.0,-100.00,East,95,9.0,12.0,62,-99.99,,,-99.99,,2013-06-30 05:53:00,